createdAt,value
2023-03-16T00:00:33.834Z,100.00
2023-03-16T00:05:36.570Z,100.00
2023-03-16T00:10:39.150Z,91.64
2023-03-16T00:15:42.334Z,92.19
2023-03-16T00:20:44.784Z,99.54
2023-03-16T00:25:47.392Z,100.00
2023-03-16T00:30:50.205Z,100.00
2023-03-16T00:36:02.234Z,100.00
2023-03-16T00:41:07.058Z,100.00
2023-03-16T00:46:14.793Z,100.00
2023-03-16T00:51:19.416Z,100.00
2023-03-16T00:56:22.180Z,100.00
2023-03-16T01:01:25.254Z,100.00
2023-03-16T01:06:28.032Z,100.00
2023-03-16T01:11:30.443Z,100.00
2023-03-16T01:16:33.910Z,100.00
2023-03-16T01:21:38.312Z,100.00
2023-03-16T01:26:40.718Z,100.00
2023-03-16T01:31:43.228Z,100.00
2023-03-16T01:36:48.888Z,100.00
2023-03-16T01:41:59.342Z,100.00
2023-03-16T01:47:01.817Z,100.00
2023-03-16T01:52:14.750Z,100.00
2023-03-16T01:57:30.475Z,100.00
2023-03-16T02:02:33.263Z,100.00
2023-03-16T02:07:45.031Z,100.00
2023-03-16T02:12:48.259Z,100.00
2023-03-16T02:17:51.670Z,100.00
2023-03-16T02:22:56.142Z,100.00
2023-03-16T02:28:15.412Z,100.00
2023-03-16T02:33:21.469Z,100.00
2023-03-16T02:38:26.150Z,100.00
2023-03-16T02:43:35.240Z,100.00
2023-03-16T02:48:49.926Z,100.00
2023-03-16T02:53:52.573Z,100.00
2023-03-16T02:58:57.942Z,100.00
2023-03-16T03:04:02.658Z,100.00
2023-03-16T03:09:08.328Z,100.00
2023-03-16T03:14:10.835Z,100.00
2023-03-16T03:19:15.591Z,100.00
2023-03-16T03:24:18.838Z,100.00
2023-03-16T03:29:22.715Z,100.00
2023-03-16T03:34:26.684Z,100.00
2023-03-16T03:39:29.459Z,100.00
2023-03-16T03:44:34.690Z,100.00
2023-03-16T03:49:37.494Z,100.00
2023-03-16T03:54:40.173Z,100.00
2023-03-16T03:59:48.873Z,100.00
2023-03-16T04:05:10.073Z,100.00
2023-03-16T04:10:12.855Z,100.00
2023-03-16T04:15:18.200Z,100.00
2023-03-16T04:20:43.437Z,100.00
2023-03-16T04:25:50.562Z,100.00
2023-03-16T04:30:55.429Z,100.00
2023-03-16T04:36:09.144Z,100.00
2023-03-16T04:41:13.750Z,100.00
2023-03-16T04:46:27.117Z,100.00
2023-03-16T04:51:30.419Z,100.00
2023-03-16T04:56:53.199Z,100.00
2023-03-16T05:02:05.931Z,100.00
2023-03-16T05:07:08.985Z,100.00
2023-03-16T05:12:14.992Z,100.00
2023-03-16T05:17:20.270Z,100.00
2023-03-16T05:22:23.679Z,100.00
2023-03-16T05:27:48.506Z,100.00
2023-03-16T05:33:00.183Z,100.00
2023-03-16T05:38:04.873Z,100.00
2023-03-16T05:43:10.502Z,100.00
2023-03-16T05:48:19.118Z,100.00
2023-03-16T05:53:28.792Z,100.00
2023-03-16T05:58:35.854Z,100.00
2023-03-16T06:03:42.439Z,100.00
2023-03-16T06:08:49.250Z,100.00
2023-03-16T06:13:53.615Z,100.00
2023-03-16T06:18:59.574Z,100.00
2023-03-16T06:24:03.658Z,100.00
2023-03-16T06:29:06.812Z,100.00
2023-03-16T06:34:11.703Z,100.00
2023-03-16T06:39:15.023Z,97.58
2023-03-16T06:44:22.234Z,100.00
2023-03-16T06:49:37.906Z,91.29
2023-03-16T06:54:48.874Z,97.95
2023-03-16T06:59:54.337Z,75.18
2023-03-16T07:04:56.975Z,73.30
2023-03-16T07:10:00.205Z,71.11
2023-03-16T07:15:03.570Z,70.03
2023-03-16T07:20:10.571Z,66.71
2023-03-16T07:25:14.054Z,64.21
2023-03-16T07:30:22.114Z,63.29
2023-03-16T07:35:26.824Z,63.85
2023-03-16T07:40:31.094Z,62.05
2023-03-16T07:45:41.766Z,59.30
2023-03-16T07:50:47.171Z,57.08
2023-03-16T07:55:50.434Z,57.02
2023-03-16T08:00:58.985Z,58.50
2023-03-16T08:06:01.678Z,62.77
2023-03-16T08:11:04.364Z,62.58
2023-03-16T08:16:29.792Z,61.89
2023-03-16T08:21:36.531Z,55.36
2023-03-16T08:26:45.072Z,51.27
2023-03-16T08:31:48.019Z,52.04
2023-03-16T08:37:01.262Z,49.90
2023-03-16T08:42:04.890Z,48.21
2023-03-16T08:47:17.051Z,45.09
2023-03-16T08:52:21.057Z,43.44
2023-03-16T08:57:27.372Z,42.68
2023-03-16T09:02:29.865Z,42.84
2023-03-16T09:07:35.698Z,41.67
2023-03-16T09:12:39.214Z,40.54
2023-03-16T09:17:43.136Z,39.03
2023-03-16T09:22:45.896Z,41.28
2023-03-16T09:27:48.471Z,44.77
2023-03-16T09:32:50.973Z,48.64
2023-03-16T09:38:05.663Z,52.02
2023-03-16T09:43:19.031Z,52.26
2023-03-16T09:48:22.363Z,47.04
2023-03-16T09:53:33.521Z,50.50
2023-03-16T09:58:36.973Z,52.41
2023-03-16T10:03:57.292Z,52.08
2023-03-16T10:09:13.603Z,50.99
2023-03-16T10:14:21.485Z,49.52
2023-03-16T10:19:42.349Z,49.05
2023-03-16T10:25:09.189Z,48.68
2023-03-16T10:30:28.675Z,46.13
2023-03-16T10:36:03.950Z,46.36
2023-03-16T10:41:19.177Z,44.04
2023-03-16T10:46:22.492Z,41.96
2023-03-16T10:51:29.485Z,40.25
2023-03-16T10:56:37.518Z,38.44
2023-03-16T11:01:40.153Z,35.15
2023-03-16T11:06:53.869Z,36.82
2023-03-16T11:11:56.676Z,37.33
2023-03-16T11:17:17.774Z,33.80
2023-03-16T11:22:27.516Z,33.41
2023-03-16T11:27:56.883Z,31.07
2023-03-16T11:33:00.723Z,30.56
2023-03-16T11:38:03.195Z,30.73
2023-03-16T11:43:27.376Z,29.28
2023-03-16T11:48:57.300Z,28.27
2023-03-16T11:54:17.539Z,28.21
2023-03-16T11:59:46.245Z,32.66
2023-03-16T12:05:23.645Z,34.55
2023-03-16T12:10:36.452Z,33.88
2023-03-16T12:15:45.119Z,32.76
2023-03-16T12:20:57.196Z,31.20
2023-03-16T12:26:00.922Z,33.99
2023-03-16T12:31:19.049Z,33.50
2023-03-16T12:36:40.205Z,34.90
2023-03-16T12:42:24.911Z,37.01
2023-03-16T12:47:55.786Z,35.81
2023-03-16T12:52:58.481Z,36.75
2023-03-16T12:58:08.687Z,34.74
2023-03-16T13:03:21.549Z,35.42
2023-03-16T13:08:24.590Z,34.49
2023-03-16T13:13:28.541Z,34.80
2023-03-16T13:18:45.115Z,32.76
2023-03-16T13:23:47.524Z,29.61
2023-03-16T13:28:55.328Z,31.51
2023-03-16T13:34:00.394Z,35.46
2023-03-16T13:39:13.494Z,37.50
2023-03-16T13:44:18.913Z,37.19
2023-03-16T13:49:21.659Z,35.78
2023-03-16T13:54:30.014Z,36.28
2023-03-16T13:59:32.764Z,33.85
2023-03-16T14:04:35.303Z,30.10
2023-03-16T14:09:40.750Z,28.34
2023-03-16T14:14:46.730Z,26.14
2023-03-16T14:19:50.751Z,27.19
2023-03-16T14:25:00.772Z,27.97
2023-03-16T14:30:26.128Z,27.94
2023-03-16T14:35:43.195Z,29.31
2023-03-16T14:40:54.303Z,32.35
2023-03-16T14:45:57.565Z,32.41
2023-03-16T14:51:02.998Z,33.62
2023-03-16T14:56:13.684Z,34.46
2023-03-16T15:01:20.442Z,35.32
2023-03-16T15:06:23.087Z,37.41
2023-03-16T15:11:26.450Z,39.00
2023-03-16T15:16:29.531Z,36.85
2023-03-16T15:21:32.238Z,37.75
2023-03-16T15:26:34.732Z,37.45
2023-03-16T15:31:38.890Z,37.18
2023-03-16T15:36:41.534Z,37.01
2023-03-16T15:41:47.832Z,36.63
2023-03-16T15:46:50.663Z,37.26
2023-03-16T15:51:53.179Z,37.48
2023-03-16T15:56:56.352Z,37.48
2023-03-16T16:01:59.068Z,37.76
2023-03-16T16:07:03.021Z,38.22
2023-03-16T16:12:06.225Z,38.72
2023-03-16T16:17:15.803Z,38.32
2023-03-16T16:22:19.195Z,38.74
2023-03-16T16:27:22.029Z,39.12
2023-03-16T16:32:25.935Z,39.84
2023-03-16T16:37:28.751Z,40.36
2023-03-16T16:42:31.648Z,40.56
2023-03-16T16:47:34.361Z,40.88
2023-03-16T16:52:37.326Z,41.48
2023-03-16T16:57:40.418Z,42.56
2023-03-16T17:02:51.792Z,42.45
2023-03-16T17:07:55.003Z,42.78
2023-03-16T17:12:58.027Z,43.48
2023-03-16T17:18:13.333Z,43.31
2023-03-16T17:23:37.142Z,43.82
2023-03-16T17:28:43.339Z,45.16
2023-03-16T17:33:46.113Z,45.86
2023-03-16T17:38:48.636Z,45.83
2023-03-16T17:43:54.630Z,46.15
2023-03-16T17:48:57.645Z,46.88
2023-03-16T17:54:00.160Z,46.98
2023-03-16T17:59:14.222Z,47.37
2023-03-16T18:04:27.631Z,47.62
2023-03-16T18:09:31.503Z,51.62
2023-03-16T18:14:39.814Z,53.03
2023-03-16T18:19:43.564Z,52.07
2023-03-16T18:24:48.665Z,55.10
2023-03-16T18:29:51.045Z,55.46
2023-03-16T18:34:54.784Z,53.91
2023-03-16T18:39:57.605Z,55.16
2023-03-16T18:45:01.019Z,57.60
2023-03-16T18:50:03.608Z,56.93
2023-03-16T18:55:16.974Z,57.07
2023-03-16T19:00:26.641Z,59.08
2023-03-16T19:05:35.786Z,57.47
2023-03-16T19:10:51.253Z,56.72
2023-03-16T19:15:56.091Z,57.61
2023-03-16T19:20:58.934Z,57.21
2023-03-16T19:26:08.014Z,58.11
2023-03-16T19:31:22.561Z,59.01
2023-03-16T19:36:26.567Z,57.60
2023-03-16T19:41:34.486Z,57.67
2023-03-16T19:46:37.247Z,56.35
2023-03-16T19:51:39.675Z,56.52
2023-03-16T19:56:42.567Z,56.44
2023-03-16T20:01:46.400Z,56.63
2023-03-16T20:06:50.051Z,57.27
2023-03-16T20:11:52.587Z,56.73
2023-03-16T20:16:55.409Z,56.31
2023-03-16T20:21:58.058Z,57.03
2023-03-16T20:27:00.567Z,58.38
2023-03-16T20:32:08.249Z,59.45
2023-03-16T20:37:28.705Z,59.71
2023-03-16T20:42:34.401Z,60.37
2023-03-16T20:47:37.137Z,60.33
2023-03-16T20:52:39.755Z,59.86
2023-03-16T20:57:43.779Z,60.86
2023-03-16T21:02:47.304Z,61.79
2023-03-16T21:07:49.951Z,61.97
2023-03-16T21:12:55.877Z,62.53
2023-03-16T21:18:04.086Z,62.02
2023-03-16T21:23:16.496Z,61.70
2023-03-16T21:28:20.790Z,62.25
2023-03-16T21:33:26.187Z,62.88
2023-03-16T21:38:31.089Z,62.84
2023-03-16T21:43:33.718Z,62.41
2023-03-16T21:48:39.805Z,62.58
2023-03-16T21:53:42.790Z,62.05
2023-03-16T21:58:47.188Z,61.80
2023-03-16T22:03:55.609Z,61.95
2023-03-16T22:08:59.755Z,62.37
2023-03-16T22:14:02.231Z,62.25
2023-03-16T22:19:05.941Z,62.62
2023-03-16T22:24:16.388Z,62.34
2023-03-16T22:29:30.399Z,62.24
2023-03-16T22:34:44.417Z,62.35
2023-03-16T22:39:47.539Z,62.75
2023-03-16T22:44:49.976Z,63.35
2023-03-16T22:49:52.640Z,64.29
2023-03-16T22:54:55.832Z,64.32
2023-03-16T22:59:59.499Z,64.93
2023-03-16T23:05:02.054Z,65.41
2023-03-16T23:10:04.917Z,67.00
2023-03-16T23:15:34.518Z,71.25
2023-03-16T23:20:36.920Z,68.18
2023-03-16T23:25:39.654Z,71.56
2023-03-16T23:30:42.302Z,70.84
2023-03-16T23:35:47.067Z,68.94
2023-03-16T23:40:49.905Z,75.69
2023-03-16T23:45:52.749Z,71.76
2023-03-16T23:50:56.818Z,68.26
2023-03-16T23:55:59.970Z,68.67
